sensor_id;sensor_type;location;lat;lon;timestamp;P1;durP1;ratioP1;P2;durP2;ratioP2
41897;SDS011;27576;53.366;-1.498;2024-02-21T00:01:24;13.52;;;9.07;;
41897;SDS011;27576;53.366;-1.498;2024-02-21T00:03:50;13.85;;;9.10;;
41897;SDS011;27576;53.366;-1.498;2024-02-21T00:06:15;13.85;;;8.55;;
41897;SDS011;27576;53.366;-1.498;2024-02-21T00:08:41;11.65;;;7.32;;
41897;SDS011;27576;53.366;-1.498;2024-02-21T00:11:06;12.48;;;8.23;;
41897;SDS011;27576;53.366;-1.498;2024-02-21T00:13:31;13.40;;;8.25;;
41897;SDS011;27576;53.366;-1.498;2024-02-21T00:15:57;12.98;;;8.88;;
41897;SDS011;27576;53.366;-1.498;2024-02-21T00:18:23;16.15;;;9.60;;
41897;SDS011;27576;53.366;-1.498;2024-02-21T00:20:48;13.13;;;9.35;;
41897;SDS011;27576;53.366;-1.498;2024-02-21T00:23:14;11.60;;;9.05;;
41897;SDS011;27576;53.366;-1.498;2024-02-21T00:25:39;18.20;;;10.73;;
41897;SDS011;27576;53.366;-1.498;2024-02-21T00:28:04;17.77;;;10.05;;
41897;SDS011;27576;53.366;-1.498;2024-02-21T00:30:31;13.43;;;9.43;;
41897;SDS011;27576;53.366;-1.498;2024-02-21T00:32:56;13.55;;;8.98;;
41897;SDS011;27576;53.366;-1.498;2024-02-21T00:35:22;13.63;;;9.30;;
41897;SDS011;27576;53.366;-1.498;2024-02-21T00:37:48;12.45;;;8.85;;
41897;SDS011;27576;53.366;-1.498;2024-02-21T00:40:13;14.13;;;10.10;;
41897;SDS011;27576;53.366;-1.498;2024-02-21T00:42:44;13.82;;;10.25;;
41897;SDS011;27576;53.366;-1.498;2024-02-21T00:45:10;12.35;;;9.38;;
41897;SDS011;27576;53.366;-1.498;2024-02-21T00:47:36;13.00;;;10.38;;
41897;SDS011;27576;53.366;-1.498;2024-02-21T00:50:02;13.82;;;10.20;;
41897;SDS011;27576;53.366;-1.498;2024-02-21T00:52:27;13.55;;;9.52;;
41897;SDS011;27576;53.366;-1.498;2024-02-21T00:54:53;13.38;;;10.23;;
41897;SDS011;27576;53.366;-1.498;2024-02-21T00:57:18;12.90;;;10.20;;
41897;SDS011;27576;53.366;-1.498;2024-02-21T00:59:43;13.57;;;9.55;;
41897;SDS011;27576;53.366;-1.498;2024-02-21T01:02:09;12.48;;;9.40;;
41897;SDS011;27576;53.366;-1.498;2024-02-21T01:04:34;13.40;;;10.15;;
41897;SDS011;27576;53.366;-1.498;2024-02-21T01:07:00;14.40;;;9.65;;
41897;SDS011;27576;53.366;-1.498;2024-02-21T01:09:25;11.90;;;10.10;;
41897;SDS011;27576;53.366;-1.498;2024-02-21T01:11:51;14.05;;;10.15;;
41897;SDS011;27576;53.366;-1.498;2024-02-21T01:14:16;14.93;;;11.30;;
41897;SDS011;27576;53.366;-1.498;2024-02-21T01:16:42;14.13;;;10.55;;
41897;SDS011;27576;53.366;-1.498;2024-02-21T01:19:08;14.15;;;11.07;;
41897;SDS011;27576;53.366;-1.498;2024-02-21T01:21:33;11.02;;;9.48;;
41897;SDS011;27576;53.366;-1.498;2024-02-21T01:23:58;15.73;;;10.88;;
41897;SDS011;27576;53.366;-1.498;2024-02-21T01:26:24;13.50;;;10.38;;
41897;SDS011;27576;53.366;-1.498;2024-02-21T01:28:49;14.20;;;10.48;;
41897;SDS011;27576;53.366;-1.498;2024-02-21T01:31:15;17.67;;;12.05;;
41897;SDS011;27576;53.366;-1.498;2024-02-21T01:33:40;15.57;;;11.32;;
41897;SDS011;27576;53.366;-1.498;2024-02-21T01:36:06;12.65;;;10.65;;
41897;SDS011;27576;53.366;-1.498;2024-02-21T01:38:32;16.55;;;12.07;;
41897;SDS011;27576;53.366;-1.498;2024-02-21T01:40:57;14.82;;;11.52;;
41897;SDS011;27576;53.366;-1.498;2024-02-21T01:43:23;15.10;;;12.00;;
41897;SDS011;27576;53.366;-1.498;2024-02-21T01:45:50;15.60;;;10.60;;
41897;SDS011;27576;53.366;-1.498;2024-02-21T01:48:17;14.25;;;10.38;;
41897;SDS011;27576;53.366;-1.498;2024-02-21T01:50:44;14.40;;;11.00;;
41897;SDS011;27576;53.366;-1.498;2024-02-21T01:53:10;16.00;;;11.23;;
41897;SDS011;27576;53.366;-1.498;2024-02-21T01:55:43;14.65;;;10.80;;
41897;SDS011;27576;53.366;-1.498;2024-02-21T01:58:09;13.35;;;10.50;;
41897;SDS011;27576;53.366;-1.498;2024-02-21T02:00:35;12.82;;;10.30;;
41897;SDS011;27576;53.366;-1.498;2024-02-21T02:03:02;13.30;;;10.80;;
41897;SDS011;27576;53.366;-1.498;2024-02-21T02:05:28;11.60;;;9.32;;
41897;SDS011;27576;53.366;-1.498;2024-02-21T02:07:54;14.85;;;11.18;;
41897;SDS011;27576;53.366;-1.498;2024-02-21T02:10:19;13.88;;;10.48;;
41897;SDS011;27576;53.366;-1.498;2024-02-21T02:12:45;12.63;;;9.52;;
41897;SDS011;27576;53.366;-1.498;2024-02-21T02:15:10;12.35;;;9.43;;
41897;SDS011;27576;53.366;-1.498;2024-02-21T02:17:35;12.45;;;9.65;;
41897;SDS011;27576;53.366;-1.498;2024-02-21T02:20:01;13.05;;;9.02;;
41897;SDS011;27576;53.366;-1.498;2024-02-21T02:22:31;13.88;;;10.63;;
41897;SDS011;27576;53.366;-1.498;2024-02-21T02:25:00;15.27;;;12.48;;
41897;SDS011;27576;53.366;-1.498;2024-02-21T02:27:26;14.43;;;12.18;;
41897;SDS011;27576;53.366;-1.498;2024-02-21T02:29:51;19.52;;;15.38;;
41897;SDS011;27576;53.366;-1.498;2024-02-21T02:32:17;20.05;;;16.25;;
41897;SDS011;27576;53.366;-1.498;2024-02-21T02:34:42;27.00;;;18.50;;
41897;SDS011;27576;53.366;-1.498;2024-02-21T02:37:08;25.75;;;18.45;;
41897;SDS011;27576;53.366;-1.498;2024-02-21T02:39:33;23.98;;;18.10;;
41897;SDS011;27576;53.366;-1.498;2024-02-21T02:41:59;24.70;;;18.48;;
41897;SDS011;27576;53.366;-1.498;2024-02-21T02:44:25;20.75;;;15.50;;
41897;SDS011;27576;53.366;-1.498;2024-02-21T02:46:50;19.90;;;15.60;;
41897;SDS011;27576;53.366;-1.498;2024-02-21T02:49:15;22.63;;;15.75;;
41897;SDS011;27576;53.366;-1.498;2024-02-21T02:51:41;20.48;;;15.65;;
41897;SDS011;27576;53.366;-1.498;2024-02-21T02:54:08;19.27;;;14.75;;
41897;SDS011;27576;53.366;-1.498;2024-02-21T02:56:33;17.05;;;13.65;;
41897;SDS011;27576;53.366;-1.498;2024-02-21T02:58:59;17.08;;;14.25;;
41897;SDS011;27576;53.366;-1.498;2024-02-21T03:01:24;18.92;;;13.88;;
41897;SDS011;27576;53.366;-1.498;2024-02-21T03:03:50;14.57;;;12.25;;
41897;SDS011;27576;53.366;-1.498;2024-02-21T03:06:15;14.98;;;13.25;;
41897;SDS011;27576;53.366;-1.498;2024-02-21T03:08:40;18.48;;;15.48;;
41897;SDS011;27576;53.366;-1.498;2024-02-21T03:11:06;19.05;;;13.73;;
41897;SDS011;27576;53.366;-1.498;2024-02-21T03:13:31;16.10;;;13.35;;
41897;SDS011;27576;53.366;-1.498;2024-02-21T03:15:57;15.63;;;13.68;;
41897;SDS011;27576;53.366;-1.498;2024-02-21T03:18:22;19.13;;;15.10;;
41897;SDS011;27576;53.366;-1.498;2024-02-21T03:20:48;16.05;;;14.05;;
41897;SDS011;27576;53.366;-1.498;2024-02-21T03:23:13;21.08;;;15.48;;
41897;SDS011;27576;53.366;-1.498;2024-02-21T03:25:39;21.92;;;15.48;;
41897;SDS011;27576;53.366;-1.498;2024-02-21T03:28:04;21.83;;;14.98;;
41897;SDS011;27576;53.366;-1.498;2024-02-21T03:30:30;18.13;;;14.52;;
41897;SDS011;27576;53.366;-1.498;2024-02-21T03:32:55;19.17;;;14.18;;
41897;SDS011;27576;53.366;-1.498;2024-02-21T03:35:20;19.10;;;13.98;;
41897;SDS011;27576;53.366;-1.498;2024-02-21T03:37:46;19.58;;;14.45;;
41897;SDS011;27576;53.366;-1.498;2024-02-21T03:40:11;21.30;;;14.90;;
41897;SDS011;27576;53.366;-1.498;2024-02-21T03:42:37;18.77;;;12.93;;
41897;SDS011;27576;53.366;-1.498;2024-02-21T03:45:03;16.83;;;12.18;;
41897;SDS011;27576;53.366;-1.498;2024-02-21T03:47:29;19.33;;;13.90;;
41897;SDS011;27576;53.366;-1.498;2024-02-21T03:49:54;19.85;;;13.23;;
41897;SDS011;27576;53.366;-1.498;2024-02-21T03:52:20;17.30;;;11.95;;
41897;SDS011;27576;53.366;-1.498;2024-02-21T03:54:45;21.35;;;11.40;;
41897;SDS011;27576;53.366;-1.498;2024-02-21T03:57:11;15.93;;;11.65;;
41897;SDS011;27576;53.366;-1.498;2024-02-21T03:59:36;15.82;;;12.05;;
41897;SDS011;27576;53.366;-1.498;2024-02-21T04:02:04;16.17;;;10.63;;
41897;SDS011;27576;53.366;-1.498;2024-02-21T04:04:33;19.55;;;11.60;;
41897;SDS011;27576;53.366;-1.498;2024-02-21T04:06:59;17.02;;;9.98;;
41897;SDS011;27576;53.366;-1.498;2024-02-21T04:09:24;14.88;;;9.80;;
41897;SDS011;27576;53.366;-1.498;2024-02-21T04:11:50;16.02;;;10.70;;
41897;SDS011;27576;53.366;-1.498;2024-02-21T04:14:15;15.30;;;10.32;;
41897;SDS011;27576;53.366;-1.498;2024-02-21T04:16:40;18.55;;;11.00;;
41897;SDS011;27576;53.366;-1.498;2024-02-21T04:19:07;17.52;;;11.15;;
41897;SDS011;27576;53.366;-1.498;2024-02-21T04:21:32;14.65;;;9.43;;
41897;SDS011;27576;53.366;-1.498;2024-02-21T04:23:58;14.95;;;8.80;;
41897;SDS011;27576;53.366;-1.498;2024-02-21T04:26:23;11.35;;;8.85;;
41897;SDS011;27576;53.366;-1.498;2024-02-21T04:28:49;14.77;;;9.13;;
41897;SDS011;27576;53.366;-1.498;2024-02-21T04:31:14;12.05;;;7.80;;
41897;SDS011;27576;53.366;-1.498;2024-02-21T04:33:40;14.32;;;7.82;;
41897;SDS011;27576;53.366;-1.498;2024-02-21T04:36:05;14.80;;;7.53;;
41897;SDS011;27576;53.366;-1.498;2024-02-21T04:38:31;8.77;;;6.18;;
41897;SDS011;27576;53.366;-1.498;2024-02-21T04:40:56;7.03;;;5.43;;
41897;SDS011;27576;53.366;-1.498;2024-02-21T04:43:23;8.90;;;4.78;;
41897;SDS011;27576;53.366;-1.498;2024-02-21T04:45:50;6.65;;;4.55;;
41897;SDS011;27576;53.366;-1.498;2024-02-21T04:48:16;7.55;;;3.92;;
41897;SDS011;27576;53.366;-1.498;2024-02-21T04:50:41;4.40;;;3.58;;
41897;SDS011;27576;53.366;-1.498;2024-02-21T04:53:06;4.72;;;3.58;;
41897;SDS011;27576;53.366;-1.498;2024-02-21T04:55:33;5.35;;;2.67;;
41897;SDS011;27576;53.366;-1.498;2024-02-21T04:57:58;3.72;;;3.00;;
41897;SDS011;27576;53.366;-1.498;2024-02-21T05:00:25;4.97;;;3.38;;
41897;SDS011;27576;53.366;-1.498;2024-02-21T05:02:50;3.50;;;2.53;;
41897;SDS011;27576;53.366;-1.498;2024-02-21T05:05:16;4.45;;;2.35;;
41897;SDS011;27576;53.366;-1.498;2024-02-21T05:07:41;2.45;;;2.15;;
41897;SDS011;27576;53.366;-1.498;2024-02-21T05:10:07;2.08;;;1.88;;
41897;SDS011;27576;53.366;-1.498;2024-02-21T05:12:33;2.47;;;1.90;;
41897;SDS011;27576;53.366;-1.498;2024-02-21T05:14:58;1.75;;;1.65;;
41897;SDS011;27576;53.366;-1.498;2024-02-21T05:17:24;4.32;;;1.63;;
41897;SDS011;27576;53.366;-1.498;2024-02-21T05:19:49;1.95;;;1.77;;
41897;SDS011;27576;53.366;-1.498;2024-02-21T05:22:14;3.10;;;1.20;;
41897;SDS011;27576;53.366;-1.498;2024-02-21T05:24:40;1.80;;;1.38;;
41897;SDS011;27576;53.366;-1.498;2024-02-21T05:27:05;2.00;;;1.50;;
41897;SDS011;27576;53.366;-1.498;2024-02-21T05:29:31;1.75;;;1.58;;
41897;SDS011;27576;53.366;-1.498;2024-02-21T05:31:56;3.13;;;1.38;;
41897;SDS011;27576;53.366;-1.498;2024-02-21T05:34:22;1.42;;;1.08;;
41897;SDS011;27576;53.366;-1.498;2024-02-21T05:36:48;1.38;;;1.20;;
41897;SDS011;27576;53.366;-1.498;2024-02-21T05:39:16;1.65;;;1.08;;
41897;SDS011;27576;53.366;-1.498;2024-02-21T05:41:42;1.75;;;1.30;;
41897;SDS011;27576;53.366;-1.498;2024-02-21T05:44:08;1.92;;;1.30;;
41897;SDS011;27576;53.366;-1.498;2024-02-21T05:46:33;1.27;;;1.17;;
41897;SDS011;27576;53.366;-1.498;2024-02-21T05:48:59;2.75;;;1.27;;
41897;SDS011;27576;53.366;-1.498;2024-02-21T05:51:24;1.48;;;1.38;;
41897;SDS011;27576;53.366;-1.498;2024-02-21T05:53:50;1.23;;;1.20;;
41897;SDS011;27576;53.366;-1.498;2024-02-21T05:56:15;1.13;;;1.13;;
41897;SDS011;27576;53.366;-1.498;2024-02-21T05:58:43;1.40;;;1.30;;
41897;SDS011;27576;53.366;-1.498;2024-02-21T06:01:08;2.15;;;1.40;;
41897;SDS011;27576;53.366;-1.498;2024-02-21T06:03:34;1.10;;;1.10;;
41897;SDS011;27576;53.366;-1.498;2024-02-21T06:06:00;1.13;;;1.13;;
41897;SDS011;27576;53.366;-1.498;2024-02-21T06:08:26;1.50;;;1.40;;
41897;SDS011;27576;53.366;-1.498;2024-02-21T06:10:51;1.00;;;1.00;;
41897;SDS011;27576;53.366;-1.498;2024-02-21T06:13:19;1.30;;;1.20;;
41897;SDS011;27576;53.366;-1.498;2024-02-21T06:15:46;1.38;;;1.15;;
41897;SDS011;27576;53.366;-1.498;2024-02-21T06:18:11;1.83;;;1.30;;
41897;SDS011;27576;53.366;-1.498;2024-02-21T06:20:38;1.58;;;1.30;;
41897;SDS011;27576;53.366;-1.498;2024-02-21T06:23:05;5.82;;;1.50;;
41897;SDS011;27576;53.366;-1.498;2024-02-21T06:25:31;2.10;;;1.60;;
41897;SDS011;27576;53.366;-1.498;2024-02-21T06:27:56;2.80;;;1.42;;
41897;SDS011;27576;53.366;-1.498;2024-02-21T06:30:22;2.40;;;1.60;;
41897;SDS011;27576;53.366;-1.498;2024-02-21T06:32:47;2.05;;;1.50;;
41897;SDS011;27576;53.366;-1.498;2024-02-21T06:35:12;2.45;;;1.55;;
41897;SDS011;27576;53.366;-1.498;2024-02-21T06:37:38;2.45;;;1.45;;
41897;SDS011;27576;53.366;-1.498;2024-02-21T06:40:04;2.97;;;1.52;;
41897;SDS011;27576;53.366;-1.498;2024-02-21T06:42:30;1.75;;;1.60;;
41897;SDS011;27576;53.366;-1.498;2024-02-21T06:44:55;1.77;;;1.40;;
41897;SDS011;27576;53.366;-1.498;2024-02-21T06:47:21;2.28;;;1.70;;
41897;SDS011;27576;53.366;-1.498;2024-02-21T06:49:50;2.60;;;1.67;;
41897;SDS011;27576;53.366;-1.498;2024-02-21T06:52:19;3.75;;;1.88;;
41897;SDS011;27576;53.366;-1.498;2024-02-21T06:54:45;3.92;;;2.15;;
41897;SDS011;27576;53.366;-1.498;2024-02-21T06:57:12;3.63;;;1.92;;
41897;SDS011;27576;53.366;-1.498;2024-02-21T06:59:38;4.25;;;1.98;;
41897;SDS011;27576;53.366;-1.498;2024-02-21T07:02:04;5.43;;;2.30;;
41897;SDS011;27576;53.366;-1.498;2024-02-21T07:04:29;5.05;;;2.10;;
41897;SDS011;27576;53.366;-1.498;2024-02-21T07:06:54;7.20;;;2.60;;
41897;SDS011;27576;53.366;-1.498;2024-02-21T07:09:20;5.18;;;2.00;;
41897;SDS011;27576;53.366;-1.498;2024-02-21T07:11:45;2.70;;;1.95;;
41897;SDS011;27576;53.366;-1.498;2024-02-21T07:14:11;3.28;;;2.20;;
41897;SDS011;27576;53.366;-1.498;2024-02-21T07:16:36;3.33;;;2.35;;
41897;SDS011;27576;53.366;-1.498;2024-02-21T07:19:02;4.13;;;2.30;;
41897;SDS011;27576;53.366;-1.498;2024-02-21T07:21:28;5.75;;;2.40;;
41897;SDS011;27576;53.366;-1.498;2024-02-21T07:23:53;6.60;;;2.20;;
41897;SDS011;27576;53.366;-1.498;2024-02-21T07:26:19;5.57;;;2.40;;
41897;SDS011;27576;53.366;-1.498;2024-02-21T07:28:44;4.55;;;2.25;;
41897;SDS011;27576;53.366;-1.498;2024-02-21T07:31:09;3.38;;;2.17;;
41897;SDS011;27576;53.366;-1.498;2024-02-21T07:33:35;8.35;;;2.60;;
41897;SDS011;27576;53.366;-1.498;2024-02-21T07:36:00;4.55;;;2.58;;
41897;SDS011;27576;53.366;-1.498;2024-02-21T07:38:26;4.05;;;3.00;;
41897;SDS011;27576;53.366;-1.498;2024-02-21T07:40:51;7.95;;;2.63;;
41897;SDS011;27576;53.366;-1.498;2024-02-21T07:43:17;4.50;;;3.03;;
41897;SDS011;27576;53.366;-1.498;2024-02-21T07:45:42;6.38;;;2.75;;
41897;SDS011;27576;53.366;-1.498;2024-02-21T07:48:08;5.60;;;3.08;;
41897;SDS011;27576;53.366;-1.498;2024-02-21T07:50:33;4.70;;;2.70;;
41897;SDS011;27576;53.366;-1.498;2024-02-21T07:52:59;5.07;;;3.05;;
41897;SDS011;27576;53.366;-1.498;2024-02-21T07:55:24;3.97;;;2.88;;
41897;SDS011;27576;53.366;-1.498;2024-02-21T07:57:49;5.57;;;3.20;;
41897;SDS011;27576;53.366;-1.498;2024-02-21T08:00:15;4.22;;;2.95;;
41897;SDS011;27576;53.366;-1.498;2024-02-21T08:02:53;6.53;;;3.20;;
41897;SDS011;27576;53.366;-1.498;2024-02-21T08:05:19;6.82;;;3.20;;
41897;SDS011;27576;53.366;-1.498;2024-02-21T08:07:44;6.63;;;3.30;;
41897;SDS011;27576;53.366;-1.498;2024-02-21T08:10:10;3.85;;;2.60;;
41897;SDS011;27576;53.366;-1.498;2024-02-21T08:12:35;4.82;;;3.30;;
41897;SDS011;27576;53.366;-1.498;2024-02-21T08:15:01;3.65;;;2.65;;
41897;SDS011;27576;53.366;-1.498;2024-02-21T08:17:33;5.75;;;2.65;;
41897;SDS011;27576;53.366;-1.498;2024-02-21T08:19:58;8.13;;;3.30;;
41897;SDS011;27576;53.366;-1.498;2024-02-21T08:22:23;5.90;;;2.40;;
41897;SDS011;27576;53.366;-1.498;2024-02-21T08:24:49;5.82;;;2.88;;
41897;SDS011;27576;53.366;-1.498;2024-02-21T08:27:14;4.65;;;2.97;;
41897;SDS011;27576;53.366;-1.498;2024-02-21T08:29:40;5.50;;;2.58;;
41897;SDS011;27576;53.366;-1.498;2024-02-21T08:32:05;5.20;;;3.03;;
41897;SDS011;27576;53.366;-1.498;2024-02-21T08:34:31;3.80;;;2.63;;
41897;SDS011;27576;53.366;-1.498;2024-02-21T08:36:59;2.65;;;2.45;;
41897;SDS011;27576;53.366;-1.498;2024-02-21T08:39:24;4.35;;;2.65;;
41897;SDS011;27576;53.366;-1.498;2024-02-21T08:41:50;2.13;;;2.00;;
41897;SDS011;27576;53.366;-1.498;2024-02-21T08:44:16;9.38;;;2.63;;
41897;SDS011;27576;53.366;-1.498;2024-02-21T08:46:41;2.85;;;2.42;;
41897;SDS011;27576;53.366;-1.498;2024-02-21T08:49:07;3.22;;;2.22;;
41897;SDS011;27576;53.366;-1.498;2024-02-21T08:51:35;3.92;;;2.40;;
41897;SDS011;27576;53.366;-1.498;2024-02-21T08:54:00;2.65;;;1.92;;
41897;SDS011;27576;53.366;-1.498;2024-02-21T08:56:26;2.17;;;1.67;;
41897;SDS011;27576;53.366;-1.498;2024-02-21T08:58:51;3.75;;;1.90;;
41897;SDS011;27576;53.366;-1.498;2024-02-21T09:01:17;5.90;;;2.40;;
41897;SDS011;27576;53.366;-1.498;2024-02-21T09:03:42;4.07;;;1.98;;
41897;SDS011;27576;53.366;-1.498;2024-02-21T09:06:09;2.60;;;1.88;;
41897;SDS011;27576;53.366;-1.498;2024-02-21T09:08:35;4.75;;;2.22;;
41897;SDS011;27576;53.366;-1.498;2024-02-21T09:11:00;4.93;;;2.03;;
41897;SDS011;27576;53.366;-1.498;2024-02-21T09:13:26;3.17;;;1.77;;
41897;SDS011;27576;53.366;-1.498;2024-02-21T09:15:54;3.60;;;1.90;;
41897;SDS011;27576;53.366;-1.498;2024-02-21T09:18:19;3.10;;;1.90;;
41897;SDS011;27576;53.366;-1.498;2024-02-21T09:20:45;1.80;;;1.67;;
41897;SDS011;27576;53.366;-1.498;2024-02-21T09:23:10;2.53;;;1.50;;
41897;SDS011;27576;53.366;-1.498;2024-02-21T09:25:36;3.42;;;1.75;;
41897;SDS011;27576;53.366;-1.498;2024-02-21T09:28:02;2.50;;;1.70;;
41897;SDS011;27576;53.366;-1.498;2024-02-21T09:30:28;2.40;;;1.80;;
41897;SDS011;27576;53.366;-1.498;2024-02-21T09:32:54;3.47;;;1.30;;
41897;SDS011;27576;53.366;-1.498;2024-02-21T09:35:19;3.72;;;1.60;;
41897;SDS011;27576;53.366;-1.498;2024-02-21T09:37:49;1.98;;;1.30;;
41897;SDS011;27576;53.366;-1.498;2024-02-21T09:40:17;1.52;;;1.38;;
41897;SDS011;27576;53.366;-1.498;2024-02-21T09:42:43;6.28;;;1.67;;
41897;SDS011;27576;53.366;-1.498;2024-02-21T09:45:22;1.63;;;1.08;;
41897;SDS011;27576;53.366;-1.498;2024-02-21T09:50:23;2.05;;;1.10;;
41897;SDS011;27576;53.366;-1.498;2024-02-21T09:52:51;1.98;;;1.40;;
41897;SDS011;27576;53.366;-1.498;2024-02-21T09:55:19;1.73;;;1.40;;
41897;SDS011;27576;53.366;-1.498;2024-02-21T09:57:46;1.85;;;1.23;;
41897;SDS011;27576;53.366;-1.498;2024-02-21T10:00:12;3.35;;;1.52;;
41897;SDS011;27576;53.366;-1.498;2024-02-21T10:02:46;4.63;;;1.30;;
41897;SDS011;27576;53.366;-1.498;2024-02-21T10:05:12;2.15;;;1.38;;
41897;SDS011;27576;53.366;-1.498;2024-02-21T10:07:38;1.65;;;1.55;;
41897;SDS011;27576;53.366;-1.498;2024-02-21T10:10:04;1.88;;;1.50;;
41897;SDS011;27576;53.366;-1.498;2024-02-21T10:12:31;1.58;;;1.20;;
41897;SDS011;27576;53.366;-1.498;2024-02-21T10:15:03;1.63;;;1.08;;
41897;SDS011;27576;53.366;-1.498;2024-02-21T10:17:31;1.80;;;1.27;;
41897;SDS011;27576;53.366;-1.498;2024-02-21T10:20:07;1.10;;;1.00;;
41897;SDS011;27576;53.366;-1.498;2024-02-21T10:22:37;1.60;;;1.17;;
41897;SDS011;27576;53.366;-1.498;2024-02-21T10:25:10;1.33;;;1.13;;
41897;SDS011;27576;53.366;-1.498;2024-02-21T10:27:37;1.40;;;1.27;;
41897;SDS011;27576;53.366;-1.498;2024-02-21T10:30:12;2.42;;;1.80;;
41897;SDS011;27576;53.366;-1.498;2024-02-21T10:32:51;2.72;;;1.25;;
41897;SDS011;27576;53.366;-1.498;2024-02-21T10:35:32;2.70;;;1.30;;
41897;SDS011;27576;53.366;-1.498;2024-02-21T10:37:58;1.80;;;1.40;;
41897;SDS011;27576;53.366;-1.498;2024-02-21T10:40:25;1.30;;;1.20;;
41897;SDS011;27576;53.366;-1.498;2024-02-21T10:43:02;2.20;;;2.00;;
41897;SDS011;27576;53.366;-1.498;2024-02-21T10:45:36;1.20;;;1.10;;
41897;SDS011;27576;53.366;-1.498;2024-02-21T10:48:10;1.75;;;1.48;;
41897;SDS011;27576;53.366;-1.498;2024-02-21T10:53:44;1.20;;;1.10;;
41897;SDS011;27576;53.366;-1.498;2024-02-21T10:58:59;1.10;;;1.00;;
41897;SDS011;27576;53.366;-1.498;2024-02-21T11:01:26;1.30;;;1.20;;
41897;SDS011;27576;53.366;-1.498;2024-02-21T11:03:54;3.13;;;1.50;;
41897;SDS011;27576;53.366;-1.498;2024-02-21T11:06:21;3.45;;;1.20;;
41897;SDS011;27576;53.366;-1.498;2024-02-21T11:08:58;1.20;;;1.20;;
41897;SDS011;27576;53.366;-1.498;2024-02-21T11:11:28;1.48;;;1.38;;
41897;SDS011;27576;53.366;-1.498;2024-02-21T11:14:03;2.95;;;1.70;;
41897;SDS011;27576;53.366;-1.498;2024-02-21T11:16:34;2.38;;;2.05;;
41897;SDS011;27576;53.366;-1.498;2024-02-21T11:19:07;2.88;;;1.63;;
41897;SDS011;27576;53.366;-1.498;2024-02-21T11:21:35;1.40;;;1.30;;
41897;SDS011;27576;53.366;-1.498;2024-02-21T11:24:01;1.65;;;1.48;;
41897;SDS011;27576;53.366;-1.498;2024-02-21T11:26:28;1.80;;;1.35;;
41897;SDS011;27576;53.366;-1.498;2024-02-21T11:29:04;5.40;;;1.88;;
41897;SDS011;27576;53.366;-1.498;2024-02-21T11:31:42;1.50;;;1.40;;
41897;SDS011;27576;53.366;-1.498;2024-02-21T11:34:11;2.78;;;2.22;;
41897;SDS011;27576;53.366;-1.498;2024-02-21T11:36:45;1.80;;;1.63;;
41897;SDS011;27576;53.366;-1.498;2024-02-21T11:39:26;2.05;;;1.85;;
41897;SDS011;27576;53.366;-1.498;2024-02-21T11:42:04;1.92;;;1.80;;
41897;SDS011;27576;53.366;-1.498;2024-02-21T11:44:32;3.80;;;2.10;;
41897;SDS011;27576;53.366;-1.498;2024-02-21T11:46:59;1.88;;;1.58;;
41897;SDS011;27576;53.366;-1.498;2024-02-21T11:49:25;1.80;;;1.70;;
41897;SDS011;27576;53.366;-1.498;2024-02-21T11:51:57;1.75;;;1.65;;
41897;SDS011;27576;53.366;-1.498;2024-02-21T11:54:24;3.40;;;1.70;;
41897;SDS011;27576;53.366;-1.498;2024-02-21T11:56:49;2.35;;;1.88;;
41897;SDS011;27576;53.366;-1.498;2024-02-21T11:59:14;2.83;;;1.60;;
41897;SDS011;27576;53.366;-1.498;2024-02-21T12:01:40;2.30;;;1.75;;
41897;SDS011;27576;53.366;-1.498;2024-02-21T12:04:05;2.63;;;1.50;;
41897;SDS011;27576;53.366;-1.498;2024-02-21T12:06:32;2.10;;;1.15;;
41897;SDS011;27576;53.366;-1.498;2024-02-21T12:08:58;1.80;;;1.17;;
41897;SDS011;27576;53.366;-1.498;2024-02-21T12:11:23;1.30;;;1.20;;
41897;SDS011;27576;53.366;-1.498;2024-02-21T12:14:01;1.27;;;1.17;;
41897;SDS011;27576;53.366;-1.498;2024-02-21T12:16:29;2.25;;;1.40;;
41897;SDS011;27576;53.366;-1.498;2024-02-21T12:18:55;1.92;;;1.40;;
41897;SDS011;27576;53.366;-1.498;2024-02-21T12:21:25;2.40;;;1.50;;
41897;SDS011;27576;53.366;-1.498;2024-02-21T12:23:53;1.58;;;1.20;;
41897;SDS011;27576;53.366;-1.498;2024-02-21T12:26:19;1.58;;;1.38;;
41897;SDS011;27576;53.366;-1.498;2024-02-21T12:28:45;2.60;;;1.35;;
41897;SDS011;27576;53.366;-1.498;2024-02-21T12:31:10;5.00;;;1.50;;
41897;SDS011;27576;53.366;-1.498;2024-02-21T12:33:36;1.20;;;1.10;;
41897;SDS011;27576;53.366;-1.498;2024-02-21T12:36:01;1.00;;;1.00;;
41897;SDS011;27576;53.366;-1.498;2024-02-21T12:38:29;2.97;;;1.10;;
41897;SDS011;27576;53.366;-1.498;2024-02-21T12:40:54;2.22;;;1.25;;
41897;SDS011;27576;53.366;-1.498;2024-02-21T12:43:20;2.00;;;1.58;;
41897;SDS011;27576;53.366;-1.498;2024-02-21T12:45:47;1.50;;;1.40;;
41897;SDS011;27576;53.366;-1.498;2024-02-21T12:48:13;1.27;;;1.17;;
41897;SDS011;27576;53.366;-1.498;2024-02-21T12:50:39;1.67;;;1.20;;
41897;SDS011;27576;53.366;-1.498;2024-02-21T12:53:05;1.75;;;1.20;;
41897;SDS011;27576;53.366;-1.498;2024-02-21T12:55:31;3.00;;;1.48;;
41897;SDS011;27576;53.366;-1.498;2024-02-21T12:57:56;2.10;;;0.90;;
41897;SDS011;27576;53.366;-1.498;2024-02-21T13:00:27;1.55;;;1.10;;
41897;SDS011;27576;53.366;-1.498;2024-02-21T13:02:53;1.30;;;1.20;;
41897;SDS011;27576;53.366;-1.498;2024-02-21T13:05:18;1.20;;;1.10;;
41897;SDS011;27576;53.366;-1.498;2024-02-21T13:07:44;1.77;;;1.17;;
41897;SDS011;27576;53.366;-1.498;2024-02-21T13:10:09;0.90;;;0.90;;
41897;SDS011;27576;53.366;-1.498;2024-02-21T13:12:35;1.00;;;1.00;;
41897;SDS011;27576;53.366;-1.498;2024-02-21T13:15:00;1.05;;;0.80;;
41897;SDS011;27576;53.366;-1.498;2024-02-21T13:17:26;2.08;;;1.00;;
41897;SDS011;27576;53.366;-1.498;2024-02-21T13:19:55;2.08;;;1.02;;
41897;SDS011;27576;53.366;-1.498;2024-02-21T13:22:20;1.10;;;1.00;;
41897;SDS011;27576;53.366;-1.498;2024-02-21T13:24:47;1.20;;;0.95;;
41897;SDS011;27576;53.366;-1.498;2024-02-21T13:27:12;1.52;;;1.00;;
41897;SDS011;27576;53.366;-1.498;2024-02-21T13:29:38;3.88;;;1.13;;
41897;SDS011;27576;53.366;-1.498;2024-02-21T13:32:03;0.98;;;0.98;;
41897;SDS011;27576;53.366;-1.498;2024-02-21T13:34:31;0.77;;;0.77;;
41897;SDS011;27576;53.366;-1.498;2024-02-21T13:36:56;0.80;;;0.80;;
41897;SDS011;27576;53.366;-1.498;2024-02-21T13:39:21;0.73;;;0.73;;
41897;SDS011;27576;53.366;-1.498;2024-02-21T13:41:47;2.08;;;0.90;;
41897;SDS011;27576;53.366;-1.498;2024-02-21T13:44:13;0.60;;;0.60;;
41897;SDS011;27576;53.366;-1.498;2024-02-21T13:46:38;0.77;;;0.65;;
41897;SDS011;27576;53.366;-1.498;2024-02-21T13:49:04;2.83;;;1.05;;
41897;SDS011;27576;53.366;-1.498;2024-02-21T13:51:33;2.55;;;0.90;;
41897;SDS011;27576;53.366;-1.498;2024-02-21T13:54:03;0.70;;;0.70;;
41897;SDS011;27576;53.366;-1.498;2024-02-21T13:56:29;0.80;;;0.80;;
41897;SDS011;27576;53.366;-1.498;2024-02-21T13:58:55;0.80;;;0.80;;
41897;SDS011;27576;53.366;-1.498;2024-02-21T14:01:20;0.80;;;0.80;;
41897;SDS011;27576;53.366;-1.498;2024-02-21T14:03:46;0.82;;;0.80;;
41897;SDS011;27576;53.366;-1.498;2024-02-21T14:06:12;1.17;;;0.80;;
41897;SDS011;27576;53.366;-1.498;2024-02-21T14:08:37;2.10;;;0.73;;
41897;SDS011;27576;53.366;-1.498;2024-02-21T14:11:04;1.90;;;0.60;;
41897;SDS011;27576;53.366;-1.498;2024-02-21T14:13:31;0.60;;;0.60;;
41897;SDS011;27576;53.366;-1.498;2024-02-21T14:15:56;0.93;;;0.90;;
41897;SDS011;27576;53.366;-1.498;2024-02-21T14:18:22;1.75;;;0.80;;
41897;SDS011;27576;53.366;-1.498;2024-02-21T14:20:48;0.50;;;0.50;;
41897;SDS011;27576;53.366;-1.498;2024-02-21T14:23:13;0.70;;;0.70;;
41897;SDS011;27576;53.366;-1.498;2024-02-21T14:25:39;0.73;;;0.70;;
41897;SDS011;27576;53.366;-1.498;2024-02-21T14:28:07;0.63;;;0.60;;
41897;SDS011;27576;53.366;-1.498;2024-02-21T14:30:34;0.60;;;0.60;;
41897;SDS011;27576;53.366;-1.498;2024-02-21T14:33:00;0.70;;;0.70;;